Latest Coastal Weather Observations for Yanakie

IDV60701

Issued at 5:12 pm EST Friday 25 May 2018 (issued every 10 minutes, with the page automatically refreshed every 10 minutes)

About coastal observations | Map of coastal stations | Coastal observations for VIC | Marine services | Other Formats
Station Details ID: 085301 Name: YANAKIE Lat: -38.81 Lon: 146.19 Height: 13.3 m
Data from the previous 72 hours. | See also: Recent months at Yanakie
Date/Time
EST
Temp
°C
Wind Pressure Rain since
9am
mm
Weather Cloud Vis
km
Sea
Height
m
Swell
Dir  Spd
kts
Gust
kts
hPa Trend Height
m
Period
s
Dir
25/05:00pm 11.5 SE 1 1 1027.6 - 0.2 - - - - - - -
25/04:30pm 12.9 S 1 2 1027.4 - 0.2 - - - - - - -
25/04:00pm 14.4 CALM 0 0 1027.3 - 0.2 - - - - - - -
25/03:30pm 14.6 CALM 0 0 1027.0 - 0.2 - - - - - - -
25/03:00pm 14.4 ESE 1 3 1027.0 - 0.2 - - - - - - -
25/02:30pm 14.6 NE 2 3 1027.1 - 0.2 - - - - - - -
25/02:00pm 14.2 NNE 2 4 1027.4 - 0.2 - - - - - - -
25/01:30pm 14.6 NW 1 4 1027.7 - 0.0 - - - - - - -
25/01:00pm 14.4 N 2 5 1028.1 - 0.0 - - - - - - -
25/12:30pm 14.4 ENE 2 4 1028.6 - 0.0 - - - - - - -
25/12:00pm 13.5 N 1 3 1028.9 - 0.0 - - - - - - -
25/11:30am 13.3 NE 3 5 1029.3 - 0.0 - - - - - - -
25/11:00am 13.0 N 3 7 1029.5 - 0.0 - - - - - - -
25/10:30am 12.7 N 3 5 1029.5 - 0.0 - - - - - - -
25/10:00am 12.4 NNE 4 7 1029.5 - 0.0 - - - - - - -
25/09:30am 12.3 NNE 4 6 1029.4 - 0.0 - - - - - - -
25/09:00am 11.5 NNE 2 4 1029.4 - 0.0 - - - - - - -
25/08:30am 11.3 N 1 3 1029.2 - 0.0 - - - - - - -
25/08:00am 11.2 NNE 2 3 1028.8 - 0.0 - - - - - - -
25/07:30am 10.5 N 2 3 1028.6 - 0.0 - - - - - - -
25/07:00am 10.6 N 3 3 1028.3 - 0.0 - - - - - - -
25/06:30am 10.6 N 3 5 1028.0 - 0.0 - - - - - - -
25/06:00am 10.6 N 3 5 1027.7 - 0.0 - - - - - - -
25/05:30am 10.9 N 3 5 1027.6 - 0.0 - - - - - - -
25/05:00am 10.4 NW 3 5 1027.4 - 0.0 - - - - - - -
25/04:30am 10.7 NNW 4 5 1027.4 - 0.0 - - - - - - -
25/04:00am 10.6 NNW 2 3 1027.5 - 0.0 - - - - - - -
25/03:30am 11.0 NNW 2 3 1027.7 - 0.0 - - - - - - -
25/03:00am 10.8 NNW 3 4 1027.7 - 0.0 - - - - - - -
25/02:30am 10.9 NW 2 3 1027.9 - 0.0 - - - - - - -
25/02:00am 11.0 SW 2 3 1027.8 - 0.0 - - - - - - -
25/01:30am 11.1 WSW 2 3 1027.7 - 0.0 - - - - - - -
25/01:00am 11.3 WSW 6 7 1028.0 - 0.0 - - - - - - -
25/12:30am 11.5 SSW 6 8 1028.0 - 0.0 - - - - - - -
25/12:00am 11.9 WSW 7 10 1027.6 - 0.0 - - - - - - -
 
Date/Time
EST
Temp
°C
Wind Pressure Rain since
9am
mm
Weather Cloud Vis
km
Sea
Height
m
Swell
Dir  Spd
kts
Gust
kts
hPa Trend Height
m
Period
s
Dir
24/11:30pm 11.8 SW 4 6 1027.7 - 0.0 - - - - - - -
24/11:00pm 11.9 SW 6 9 1027.8 - 0.0 - - - - - - -
24/10:30pm 12.0 WSW 7 10 1027.7 - 0.0 - - - - - - -
24/10:00pm 11.9 WSW 7 10 1027.4 - 0.0 - - - - - - -
24/09:30pm 12.0 WSW 8 12 1027.5 - 0.0 - - - - - - -
24/09:00pm 12.1 WSW 9 12 1027.2 - 0.0 - - - - - - -
24/08:30pm 12.1 SW 10 13 1027.1 - 0.0 - - - - - - -
24/08:00pm 12.0 SW 9 13 1027.2 - 0.0 - - - - - - -
24/07:30pm 11.9 SW 10 14 1027.2 - 0.0 - - - - - - -
24/07:00pm 11.5 SW 9 13 1026.9 - 0.0 - - - - - - -
24/06:30pm 12.2 WSW 9 12 1026.6 - 0.0 - - - - - - -
24/06:00pm 11.8 WSW 9 12 1026.5 - 0.0 - - - - - - -
24/05:30pm 12.0 WSW 11 14 1026.2 - 0.0 - - - - - - -
24/05:00pm 12.4 WSW 11 15 1026.0 - 0.0 - - - - - - -
24/04:30pm 13.0 WSW 13 17 1025.8 - 0.0 - - - - - - -
24/04:00pm 13.6 SW 14 18 1025.6 - 0.0 - - - - - - -
24/03:30pm 13.8 WSW 12 16 1025.3 - 0.0 - - - - - - -
24/03:00pm 13.8 WSW 13 18 1025.3 - 0.0 - - - - - - -
24/02:30pm 14.0 WSW 12 16 1025.2 - 0.0 - - - - - - -
24/02:00pm 14.4 WSW 14 17 1025.2 - 0.0 - - - - - - -
24/01:30pm 14.1 WSW 13 19 1025.3 - 0.0 - - - - - - -
24/01:00pm 15.3 WSW 12 16 1025.3 - 0.0 - - - - - - -
24/12:30pm 14.5 WSW 12 15 1025.6 - 0.0 - - - - - - -
24/12:00pm 14.9 WSW 12 15 1026.1 - 0.0 - - - - - - -
24/11:30am 15.2 WSW 11 15 1026.5 - 0.0 - - - - - - -
24/11:00am 14.4 WSW 12 17 1026.6 - 0.0 - - - - - - -
24/10:30am 14.4 WSW 12 15 1026.7 - 0.0 - - - - - - -
24/10:00am 13.7 WSW 14 19 1026.8 - 0.0 - - - - - - -
24/09:30am 13.9 WSW 10 13 1026.7 - 0.0 - - - - - - -
24/09:00am 13.6 WSW 15 19 1026.6 - 0.0 - - - - - - -
24/08:30am 13.7 WSW 12 17 1026.5 - 0.0 - - - - - - -
24/08:00am 13.7 SW 12 17 1026.2 - 0.0 - - - - - - -
24/07:30am 13.5 WSW 12 17 1026.2 - 0.0 - - - - - - -
24/07:00am 13.4 WSW 10 13 1025.8 - 0.0 - - - - - - -
24/06:30am 13.7 WSW 11 15 1025.7 - 0.0 - - - - - - -
24/06:00am 13.8 WSW 14 19 1025.3 - 0.0 - - - - - - -
24/05:30am 13.6 WSW 13 16 1025.0 - 0.0 - - - - - - -
24/05:00am 13.7 WSW 12 15 1024.7 - 0.0 - - - - - - -
24/04:30am 12.6 W 9 11 1024.6 - 0.0 - - - - - - -
24/04:00am 12.4 W 7 9 1024.5 - 0.0 - - - - - - -
24/03:30am 12.9 W 12 14 1024.7 - 0.0 - - - - - - -
24/03:00am 13.5 W 14 18 1024.9 - 0.0 - - - - - - -
24/02:30am 13.6 WSW 11 15 1024.8 - 0.0 - - - - - - -
24/02:00am 13.7 WSW 12 15 1024.8 - 0.0 - - - - - - -
24/01:30am 14.0 WSW 14 19 1024.8 - 0.0 - - - - - - -
24/01:00am 13.8 WSW 13 20 1025.0 - 0.0 - - - - - - -
24/12:30am 13.8 WSW 12 17 1025.1 - 0.0 - - - - - - -
24/12:00am 13.8 WSW 14 18 1025.1 - 0.0 - - - - - - -
 
Date/Time
EST
Temp
°C
Wind Pressure Rain since
9am
mm
Weather Cloud Vis
km
Sea
Height
m
Swell
Dir  Spd
kts
Gust
kts
hPa Trend Height
m
Period
s
Dir
23/11:30pm 13.9 WSW 16 22 1025.2 - 0.0 - - - - - - -
23/11:00pm 13.9 WSW 14 22 1025.3 - 0.0 - - - - - - -
23/10:30pm 13.8 WSW 13 17 1025.6 - 0.0 - - - - - - -
23/10:00pm 13.9 WSW 16 22 1025.7 - 0.0 - - - - - - -
23/09:30pm 14.0 WSW 14 19 1025.6 - 0.0 - - - - - - -
23/09:00pm 14.0 WSW 14 19 1025.4 - 0.0 - - - - - - -
23/08:30pm 14.0 WSW 14 18 1025.3 - 0.0 - - - - - - -
23/08:00pm 13.7 WSW 12 15 1025.0 - 0.0 - - - - - - -
23/07:30pm 13.8 W 11 14 1024.9 - 0.0 - - - - - - -
23/07:00pm 13.9 W 13 17 1025.0 - 0.0 - - - - - - -
23/06:30pm 13.9 W 13 17 1025.0 - 0.0 - - - - - - -
23/06:00pm 13.4 W 10 12 1024.8 - 0.0 - - - - - - -
23/05:30pm 13.5 W 11 15 1024.6 - 0.0 - - - - - - -
23/05:00pm 13.7 W 12 15 1024.6 - 0.0 - - - - - - -
23/04:30pm 13.8 WSW 14 20 1024.6 - 0.0 - - - - - - -
23/04:00pm 14.0 W 14 18 1024.5 - 0.0 - - - - - - -
23/03:30pm 13.9 W 17 21 1024.5 - 0.0 - - - - - - -
23/03:00pm 14.1 W 16 21 1024.5 - 0.0 - - - - - - -
23/02:30pm 14.7 WSW 17 22 1024.4 - 0.0 - - - - - - -
23/02:00pm 14.4 WSW 14 19 1024.5 - 0.0 - - - - - - -
23/01:30pm 14.3 WSW 15 20 1024.5 - 0.0 - - - - - - -
23/01:00pm 14.1 WSW 15 21 1024.7 - 0.0 - - - - - - -
23/12:30pm 13.8 W 15 21 1024.6 - 0.0 - - - - - - -
23/12:00pm 14.2 W 13 17 1025.0 - 0.0 - - - - - - -
23/11:30am 13.8 WSW 16 22 1025.5 - 0.0 - - - - - - -
23/11:00am 14.0 WSW 16 19 1025.6 - 0.0 - - - - - - -
23/10:30am 13.6 W 15 20 1025.8 - 0.0 - - - - - - -
23/10:00am 13.9 W 14 19 1025.6 - 0.0 - - - - - - -
23/09:30am 12.4 WSW 16 22 1025.8 - 0.0 - - - - - - -
23/09:00am 13.1 W 14 20 1025.8 - 2.2 - - - - - - -
23/08:30am 13.1 W 12 14 1025.5 - 2.2 - - - - - - -
23/08:00am 12.9 W 13 17 1025.5 - 2.2 - - - - - - -
23/07:30am 12.6 W 13 17 1025.4 - 2.2 - - - - - - -
23/07:00am 12.8 W 16 22 1025.1 - 1.8 - - - - - - -
23/06:30am 12.8 W 13 18 1024.8 - 1.4 - - - - - - -
23/06:00am 13.0 W 13 18 1024.5 - 1.4 - - - - - - -
23/05:30am 12.8 W 8 12 1024.3 - 1.4 - - - - - - -
23/05:00am 12.4 W 9 11 1024.0 - 1.4 - - - - - - -
23/04:30am 12.5 W 10 17 1023.9 - 1.4 - - - - - - -
23/04:00am 12.3 W 8 10 1024.0 - 1.0 - - - - - - -
23/03:30am 12.6 W 9 12 1024.0 - 1.0 - - - - - - -
23/03:00am 12.1 W 9 12 1024.1 - 1.0 - - - - - - -
23/02:30am 11.7 W 7 8 1024.1 - 1.0 - - - - - - -
23/02:00am 11.9 W 8 10 1024.2 - 1.0 - - - - - - -
23/01:30am 12.2 W 8 10 1024.2 - 1.0 - - - - - - -
23/01:00am 12.3 W 8 10 1024.2 - 1.0 - - - - - - -
23/12:30am 12.0 W 8 9 1024.0 - 1.0 - - - - - - -
23/12:00am 12.3 W 10 12 1024.2 - 1.0 - - - - - - -
 
Date/Time
EST
Temp
°C
Wind Pressure Rain since
9am
mm
Weather Cloud Vis
km
Sea
Height
m
Swell
Dir  Spd
kts
Gust
kts
hPa Trend Height
m
Period
s
Dir
22/11:30pm 12.2 W 8 10 1024.3 - 1.0 - - - - - - -
22/11:00pm 12.6 WSW 11 15 1024.4 - 1.0 - - - - - - -
22/10:30pm 11.9 W 8 10 1024.4 - 1.0 - - - - - - -
22/10:00pm 12.3 WSW 11 13 1024.5 - 1.0 - - - - - - -
22/09:30pm 12.7 WSW 12 19 1024.5 - 1.0 - - - - - - -
22/09:00pm 13.1 W 10 14 1024.3 - 0.8 - - - - - - -
22/08:30pm 12.8 W 8 10 1024.1 - 0.8 - - - - - - -
22/08:00pm 13.1 WSW 10 13 1024.0 - 0.8 - - - - - - -
22/07:30pm 13.3 WSW 10 15 1023.9 - 0.8 - - - - - - -
22/07:00pm 13.4 WSW 14 21 1023.6 - 0.8 - - - - - - -
22/06:30pm 13.2 WSW 13 17 1023.4 - 0.8 - - - - - - -
22/06:00pm 13.2 WSW 13 17 1023.0 - 0.8 - - - - - - -
22/05:30pm 13.5 WSW 15 19 1022.6 - 0.8 - - - - - - -

Other Formats:

Comma delimited format used in spreadsheet applications
http://www.bom.gov.au/fwo/IDV60701/IDV60701.94911.axf

JavaScript Object Notation format (JSON) in row-major order
http://www.bom.gov.au/fwo/IDV60701/IDV60701.94911.json